Glenville, WV (26351)

1:53 AM EDT on July 29, 2014 (GMT -0400)
Brooklyn Point (KWVGLENV3) Elev 732 ft | 38.94 °N, 80.84 °W | Change Station

Current weather conditions updated 27 seconds ago

Scattered Clouds
Scattered Clouds
61.2 °F
Feels Like 61.2 °F
N
2.2
Wind Variable Wind from SSE

Today is forecast to be Cooler than yesterday.

Today
High -- | Low -- °F
--% Chance of Precip.
Yesterday
High -- | Low -- °F
Precip. -- in
6:21 AM 8:37 PM
Waxing Crescent, 5% visible
Pressure 29.96 in
Visibility 3.0 miles
Clouds Scattered Clouds 5000 ft
Dew Point 61 °F
Humidity 98%
Rainfall 0.00 in
Snow Depth Not available.
UV 0 out of 12
Pollen 4.10 out of 12
Air Quality Not available.
Flu Activity Not available.
SPECI KCKB 290527Z AUTO 00000KT 3SM BR SCT050 13/12 A2996 RMK AO2 T01280117

More Conditions Fewer Conditions

Pressure 29.96 in
Visibility 3.0 miles
Clouds Scattered Clouds 5000 ft
Dew Point 61 °F
Humidity 98%
Rainfall 0.00 in
Snow Depth Not available.
UV 0 out of 12
Pollen 4.10 out of 12
Air Quality Not available.
Flu Activity Not available.
SPECI KCKB 290527Z AUTO 00000KT 3SM BR SCT050 13/12 A2996 RMK AO2 T01280117

More Conditions Fewer Conditions

10-Day Weather Forecast

Almanac

Astronomy

Jul. 29, 2014 Rise Set
Actual Time 6:21 AM EDT 8:37 PM EDT
Civil Twilight 5:51 AM EDT 9:07 PM EDT
Nautical Twilight 5:14 AM EDT 9:44 PM EDT
Astronomical Twilight 4:34 AM EDT 10:24 PM EDT
Moon 8:54 AM EDT 9:51 PM EDT
Length of Visible Light 15h 15m
Length of Day
14h 15m
Tomorrow will be 1m 49s shorter.
Waxing Crescent, 5% of the Moon is Illuminated
Today
Waxing Crescent
Aug 3
First Quarter
Aug 10
Full
Aug 17
Last Quarter
Aug 25
New

Today's Extremes

State Highs State Lows

Community

WunderPhotos

Upload Photos

1,738,641 photos uploaded!

Nearby

Snow Depth

Station Depth Elevation
No new snow has been reported.

Earthquake Activity

City Distance Mag. Time & Date
No recent earthquake activity has been reported nearby.
Minimum magnitude displayed is 2.5.

Coastal Water Temperatures

Place Temperature
No Stations Reporting

Nearby Weather Stations

Station Location Temp. Dew Point Humidity Wind Precip. Elev Updated Type
Brooklyn Point, Glenville, WV 61.2 °F 61 °F 98% SSE  at  2.2 mph - / hr 732 ft 12:52 AM CDT Normal
Quirky Towers, Vadis, Alum Bridge, WV 60.4 °F 60 °F 99% SW  at  0.0 mph 0.00 in / hr 837 ft 1:53 AM EDT Normal
W8PY @ Harmony, West Union, WV 55.2 °F 54 °F 97% NNW  at  0.0 mph 0.00 in / hr 852 ft 1:46 AM EDT Normal
Grapevine Circle, Gassaway, WV 58.2 °F 58 °F 98% North  at  0.0 mph 0.00 in / hr 1270 ft 1:49 AM EDT Normal
Frame Circle, Gassaway, WV 58.6 °F 57 °F 96% ENE  at  0.0 mph 0.00 in / hr 890 ft 1:53 AM EDT Rapid Fire

Show More Stations Show Fewer Stations